createdAt,value
2022-11-27T00:01:56.071Z,60.03
2022-11-27T00:04:22.715Z,71.05
2022-11-27T00:06:49.501Z,53.97
2022-11-27T00:09:16.692Z,50.58
2022-11-27T00:11:44.099Z,55.10
2022-11-27T00:14:15.382Z,52.17
2022-11-27T00:16:42.316Z,50.45
2022-11-27T00:19:10.551Z,52.85
2022-11-27T00:21:38.493Z,46.72
2022-11-27T00:24:06.828Z,53.92
2022-11-27T00:26:37.782Z,56.55
2022-11-27T00:29:06.436Z,46.63
2022-11-27T00:31:34.494Z,53.20
2022-11-27T00:34:03.866Z,64.25
2022-11-27T00:36:32.573Z,49.22
2022-11-27T00:38:59.392Z,47.75
2022-11-27T00:41:28.461Z,52.28
2022-11-27T00:43:56.044Z,49.00
2022-11-27T00:46:29.453Z,38.13
2022-11-27T00:48:57.747Z,46.33
2022-11-27T00:51:25.463Z,32.72
2022-11-27T00:53:53.028Z,44.35
2022-11-27T00:56:23.399Z,57.72
2022-11-27T00:58:50.825Z,42.35
2022-11-27T01:01:20.997Z,43.67
2022-11-27T01:03:48.362Z,50.92
2022-11-27T01:06:16.480Z,44.97
2022-11-27T01:08:43.594Z,51.63
2022-11-27T01:11:22.932Z,52.03
2022-11-27T01:13:49.647Z,58.72
2022-11-27T01:16:19.765Z,56.45
2022-11-27T01:18:48.698Z,55.10
2022-11-27T01:21:18.250Z,64.78
2022-11-27T01:23:45.255Z,49.00
2022-11-27T01:26:12.358Z,39.72
2022-11-27T01:28:40.043Z,51.75
2022-11-27T01:31:14.370Z,41.58
2022-11-27T01:33:41.103Z,39.08
2022-11-27T01:36:09.863Z,55.83
2022-11-27T01:38:36.710Z,34.85
2022-11-27T01:41:17.243Z,56.75
2022-11-27T01:43:53.254Z,36.65
2022-11-27T01:46:46.194Z,49.78
2022-11-27T01:49:15.670Z,49.13
2022-11-27T01:51:52.234Z,52.15
2022-11-27T01:54:21.545Z,45.17
2022-11-27T01:56:51.995Z,49.33
2022-11-27T01:59:19.394Z,58.35
2022-11-27T02:01:46.112Z,48.10
2022-11-27T02:04:13.147Z,50.88
2022-11-27T02:06:39.898Z,57.25
2022-11-27T02:09:06.737Z,58.70
2022-11-27T02:11:58.647Z,73.55
2022-11-27T02:14:50.342Z,64.03
2022-11-27T02:17:30.023Z,45.53
2022-11-27T02:20:11.889Z,69.38
2022-11-27T02:23:03.487Z,52.22
2022-11-27T02:25:36.132Z,68.60
2022-11-27T02:28:29.114Z,62.20
2022-11-27T02:31:09.799Z,57.65
2022-11-27T02:33:45.156Z,52.58
2022-11-27T02:36:18.839Z,62.80
2022-11-27T02:38:55.714Z,53.25
2022-11-27T02:41:29.832Z,61.97
2022-11-27T02:43:58.141Z,53.80
2022-11-27T02:46:27.747Z,57.72
2022-11-27T02:49:06.252Z,69.57
2022-11-27T02:51:47.983Z,61.58
2022-11-27T02:54:21.758Z,69.55
2022-11-27T02:56:51.096Z,57.58
2022-11-27T02:59:21.990Z,44.33
2022-11-27T03:01:54.972Z,46.65
2022-11-27T03:04:29.705Z,54.50
2022-11-27T03:07:03.662Z,49.38
2022-11-27T03:09:36.636Z,41.92
2022-11-27T03:12:08.654Z,42.22
2022-11-27T03:14:37.561Z,44.85
2022-11-27T03:17:51.659Z,60.10
2022-11-27T03:20:26.947Z,61.20
2022-11-27T03:22:57.148Z,59.95
2022-11-27T03:25:24.636Z,58.65
2022-11-27T03:28:03.676Z,62.83
2022-11-27T03:30:30.835Z,40.35
2022-11-27T03:32:57.816Z,52.92
2022-11-27T03:35:26.500Z,46.00
2022-11-27T03:37:53.949Z,46.90
2022-11-27T03:40:41.320Z,38.25
2022-11-27T03:43:17.652Z,54.42
2022-11-27T03:46:22.677Z,46.35
2022-11-27T03:49:03.378Z,58.85
2022-11-27T03:51:43.748Z,48.05
2022-11-27T03:54:27.500Z,45.35
2022-11-27T03:57:33.673Z,51.28
2022-11-27T04:00:05.715Z,43.45
2022-11-27T04:02:44.907Z,47.22
2022-11-27T04:05:12.773Z,47.80
2022-11-27T04:07:39.679Z,51.45
2022-11-27T04:10:07.281Z,51.92
2022-11-27T04:12:34.003Z,55.03
2022-11-27T04:15:00.840Z,58.63
2022-11-27T04:17:27.751Z,45.83
2022-11-27T04:19:54.390Z,54.30
2022-11-27T04:22:21.136Z,41.58
2022-11-27T04:24:47.822Z,49.42
2022-11-27T04:27:14.719Z,41.38
2022-11-27T04:29:41.441Z,38.90
2022-11-27T04:32:08.166Z,55.67
2022-11-27T04:34:34.836Z,51.00
2022-11-27T04:37:01.515Z,41.10
2022-11-27T04:39:28.213Z,40.63
2022-11-27T04:41:55.007Z,35.17
2022-11-27T04:44:22.759Z,50.08
2022-11-27T04:46:50.166Z,35.92
2022-11-27T04:49:16.905Z,36.35
2022-11-27T04:51:43.723Z,47.03
2022-11-27T04:54:10.499Z,41.22
2022-11-27T04:56:37.194Z,39.10
2022-11-27T04:59:04.599Z,46.78
2022-11-27T05:01:31.292Z,39.80
2022-11-27T05:03:58.197Z,39.38
2022-11-27T05:06:24.898Z,39.38
2022-11-27T05:08:51.530Z,36.25
2022-11-27T05:11:18.240Z,35.25
2022-11-27T05:13:45.228Z,33.08
2022-11-27T05:16:12.032Z,44.65
2022-11-27T05:18:38.701Z,44.22
2022-11-27T05:21:07.657Z,38.50
2022-11-27T05:23:35.039Z,43.97
2022-11-27T05:26:03.350Z,41.28
2022-11-27T05:28:30.080Z,41.42
2022-11-27T05:30:56.824Z,25.42
2022-11-27T05:33:23.493Z,33.63
2022-11-27T05:35:50.111Z,35.50
2022-11-27T05:38:16.781Z,36.65
2022-11-27T05:40:43.402Z,41.50
2022-11-27T05:43:10.174Z,48.50
2022-11-27T05:45:37.814Z,37.65
2022-11-27T05:48:04.628Z,44.50
2022-11-27T05:50:31.251Z,44.15
2022-11-27T05:52:57.892Z,35.28
2022-11-27T05:55:24.577Z,40.88
2022-11-27T05:57:51.210Z,33.53
2022-11-27T06:00:18.036Z,39.63
2022-11-27T06:02:44.770Z,46.33
2022-11-27T06:05:11.578Z,36.35
2022-11-27T06:07:38.338Z,35.85
2022-11-27T06:10:05.800Z,31.67
2022-11-27T06:12:33.026Z,33.47
2022-11-27T06:14:59.690Z,44.47
2022-11-27T06:17:26.350Z,40.53
2022-11-27T06:19:53.006Z,35.65
2022-11-27T06:22:19.695Z,36.90
2022-11-27T06:24:46.394Z,31.80
2022-11-27T06:27:13.089Z,44.33
2022-11-27T06:29:39.772Z,34.67
2022-11-27T06:32:06.794Z,39.53
2022-11-27T06:34:33.584Z,37.15
2022-11-27T06:37:00.253Z,36.42
2022-11-27T06:39:26.882Z,35.85
2022-11-27T06:41:53.528Z,36.58
2022-11-27T06:44:20.216Z,33.92
2022-11-27T06:46:46.850Z,28.35
2022-11-27T06:49:13.496Z,32.80
2022-11-27T06:51:40.149Z,35.88
2022-11-27T06:54:06.904Z,39.88
2022-11-27T06:56:33.751Z,33.47
2022-11-27T06:59:01.728Z,39.83
2022-11-27T07:01:29.945Z,38.05
2022-11-27T07:03:57.199Z,38.15
2022-11-27T07:06:25.972Z,42.55
2022-11-27T07:08:54.197Z,45.17
2022-11-27T07:11:23.259Z,38.63
2022-11-27T07:13:50.717Z,37.05
2022-11-27T07:16:18.404Z,43.45
2022-11-27T07:18:49.033Z,43.05
2022-11-27T07:21:15.890Z,48.75
2022-11-27T07:23:42.772Z,50.83
2022-11-27T07:26:21.687Z,42.65
2022-11-27T07:28:48.518Z,40.40
2022-11-27T07:31:20.540Z,38.35
2022-11-27T07:33:47.636Z,35.55
2022-11-27T07:36:17.203Z,39.05
2022-11-27T07:38:44.904Z,35.53
2022-11-27T07:41:12.359Z,37.95
2022-11-27T07:43:39.934Z,33.88
2022-11-27T07:46:08.684Z,40.13
2022-11-27T07:48:35.404Z,44.45
2022-11-27T07:51:02.044Z,35.33
2022-11-27T07:53:28.682Z,34.38
2022-11-27T07:55:59.913Z,36.80
2022-11-27T07:58:26.604Z,34.60
2022-11-27T08:00:53.336Z,41.20
2022-11-27T08:03:20.020Z,35.60
2022-11-27T08:05:46.640Z,36.47
2022-11-27T08:08:13.277Z,36.53
2022-11-27T08:10:40.560Z,39.17
2022-11-27T08:13:07.240Z,36.42
2022-11-27T08:15:34.300Z,40.65
2022-11-27T08:18:00.962Z,34.63
2022-11-27T08:20:27.721Z,28.60
2022-11-27T08:22:59.510Z,33.63
2022-11-27T08:25:29.111Z,29.92
2022-11-27T08:27:55.846Z,29.95
2022-11-27T08:30:23.959Z,24.50
2022-11-27T08:32:51.044Z,27.27
2022-11-27T08:35:17.940Z,30.92
2022-11-27T08:37:44.870Z,29.08
2022-11-27T08:40:12.063Z,29.95
2022-11-27T08:42:38.732Z,27.85
2022-11-27T08:45:05.749Z,29.25
2022-11-27T08:47:32.528Z,25.75
2022-11-27T08:49:59.169Z,30.80
2022-11-27T08:52:26.413Z,27.42
2022-11-27T08:54:57.346Z,28.02
2022-11-27T08:57:24.876Z,25.83
2022-11-27T08:59:51.534Z,25.70
2022-11-27T09:02:18.164Z,32.58
2022-11-27T09:04:44.838Z,25.58
2022-11-27T09:07:14.220Z,25.02
2022-11-27T09:09:41.102Z,24.73
2022-11-27T09:12:07.916Z,20.80
2022-11-27T09:14:34.588Z,26.70
2022-11-27T09:17:01.292Z,26.67
2022-11-27T09:19:28.103Z,22.25
2022-11-27T09:21:54.818Z,28.35
2022-11-27T09:24:21.500Z,23.35
2022-11-27T09:26:48.171Z,20.85
2022-11-27T09:29:14.861Z,22.88
2022-11-27T09:31:41.564Z,28.02
2022-11-27T09:34:08.405Z,25.35
2022-11-27T09:36:35.191Z,24.13
2022-11-27T09:39:03.503Z,30.65
2022-11-27T09:41:57.644Z,29.45
2022-11-27T09:44:27.037Z,32.75
2022-11-27T09:46:56.426Z,27.05
2022-11-27T09:49:31.169Z,23.98
2022-11-27T09:52:06.257Z,27.15
2022-11-27T09:54:58.169Z,25.63
2022-11-27T09:57:31.450Z,30.02
2022-11-27T10:00:02.815Z,20.57
2022-11-27T10:02:32.403Z,27.40
2022-11-27T10:05:13.982Z,25.35
2022-11-27T10:08:04.740Z,22.48
2022-11-27T10:10:51.690Z,23.77
2022-11-27T10:13:50.570Z,23.58
2022-11-27T10:16:44.583Z,25.88
2022-11-27T10:19:39.524Z,26.55
2022-11-27T10:22:26.398Z,26.90
2022-11-27T10:25:25.147Z,26.55
2022-11-27T10:28:10.292Z,23.83
2022-11-27T10:30:42.383Z,24.65
2022-11-27T10:33:18.592Z,25.70
2022-11-27T10:35:48.599Z,20.55
2022-11-27T10:38:20.964Z,25.70
2022-11-27T10:44:32.587Z,19.25
2022-11-27T10:47:03.890Z,20.83
2022-11-27T10:49:31.344Z,19.42
2022-11-27T10:51:58.059Z,22.25
2022-11-27T10:54:33.420Z,15.90
2022-11-27T10:57:08.831Z,16.73
2022-11-27T10:59:48.180Z,17.23
2022-11-27T11:02:30.382Z,16.48
2022-11-27T11:05:24.127Z,16.95
2022-11-27T11:08:01.304Z,14.20
2022-11-27T11:10:44.894Z,14.02
2022-11-27T11:13:19.648Z,16.70
2022-11-27T11:16:12.149Z,18.27
2022-11-27T11:18:49.083Z,14.82
2022-11-27T11:21:34.268Z,16.48
2022-11-27T11:24:04.952Z,10.68
2022-11-27T11:26:41.180Z,11.95
2022-11-27T11:29:19.981Z,10.13
2022-11-27T11:31:46.848Z,16.80
2022-11-27T11:34:43.706Z,13.60
2022-11-27T11:37:28.891Z,10.88
2022-11-27T11:40:05.301Z,12.35
2022-11-27T11:42:36.001Z,11.52
2022-11-27T11:45:16.542Z,9.23
2022-11-27T11:47:52.297Z,12.77
2022-11-27T11:50:36.992Z,12.05
2022-11-27T11:53:21.647Z,11.80
2022-11-27T11:56:26.090Z,12.48
2022-11-27T11:59:00.465Z,15.82
2022-11-27T12:01:43.410Z,12.52
2022-11-27T12:07:33.440Z,12.50
2022-11-27T12:10:12.785Z,14.98
2022-11-27T12:13:08.372Z,11.98
2022-11-27T12:16:07.636Z,13.57
2022-11-27T12:19:04.159Z,20.75
2022-11-27T12:22:08.805Z,26.25
2022-11-27T12:24:44.415Z,36.25
2022-11-27T12:27:27.064Z,19.90
2022-11-27T12:30:16.866Z,9.45
2022-11-27T12:32:58.435Z,12.25
2022-11-27T12:35:57.946Z,9.48
2022-11-27T12:38:32.735Z,6.43
2022-11-27T12:41:30.536Z,12.02
2022-11-27T12:44:00.274Z,9.93
2022-11-27T12:46:59.398Z,9.63
2022-11-27T12:49:46.303Z,11.77
2022-11-27T12:52:21.127Z,11.40
2022-11-27T12:54:52.720Z,9.02
2022-11-27T12:57:27.304Z,10.02
2022-11-27T12:59:56.759Z,12.95
2022-11-27T13:02:32.572Z,11.18
2022-11-27T13:05:13.286Z,11.35
2022-11-27T13:07:49.423Z,8.57
2022-11-27T13:10:54.218Z,11.73
2022-11-27T13:14:11.103Z,8.65
2022-11-27T13:16:51.454Z,7.97
2022-11-27T13:19:41.972Z,8.48
2022-11-27T13:22:20.404Z,7.88
2022-11-27T13:24:47.258Z,9.82
2022-11-27T13:27:17.680Z,14.07
2022-11-27T13:29:46.978Z,11.40
2022-11-27T13:32:23.972Z,9.10
2022-11-27T13:34:52.083Z,12.68
2022-11-27T13:37:40.745Z,12.43
2022-11-27T13:40:29.484Z,11.20
2022-11-27T13:42:58.743Z,11.35
2022-11-27T13:45:32.497Z,8.10
2022-11-27T13:48:02.456Z,11.15
2022-11-27T13:50:31.686Z,8.48
2022-11-27T13:53:07.305Z,11.32
2022-11-27T13:55:38.192Z,10.60
2022-11-27T13:58:06.730Z,15.20
2022-11-27T14:00:39.652Z,13.60
2022-11-27T14:03:10.622Z,10.95
2022-11-27T14:05:42.976Z,10.30
2022-11-27T14:08:31.404Z,13.40
2022-11-27T14:11:04.652Z,15.32
2022-11-27T14:13:40.507Z,13.40
2022-11-27T14:16:28.483Z,12.43
2022-11-27T14:18:58.688Z,31.80
2022-11-27T14:21:42.435Z,12.43
2022-11-27T14:24:32.363Z,10.57
2022-11-27T14:26:59.036Z,13.40
2022-11-27T14:29:30.343Z,15.63
2022-11-27T14:32:02.253Z,14.45
2022-11-27T14:34:29.750Z,9.75
2022-11-27T14:36:57.036Z,9.95
2022-11-27T14:39:33.395Z,11.35
2022-11-27T14:42:05.358Z,13.02
2022-11-27T14:44:32.932Z,8.00
2022-11-27T14:47:03.303Z,9.18
2022-11-27T14:49:31.881Z,14.57
2022-11-27T14:52:05.507Z,14.52
2022-11-27T14:54:37.182Z,11.15
2022-11-27T14:57:06.465Z,11.18
2022-11-27T14:59:33.578Z,10.65
2022-11-27T15:02:02.146Z,12.50
2022-11-27T15:04:34.919Z,13.20
2022-11-27T15:07:05.863Z,13.35
2022-11-27T15:09:35.046Z,11.38
2022-11-27T15:12:20.512Z,8.68
2022-11-27T15:14:57.306Z,11.25
2022-11-27T15:17:30.377Z,10.63
2022-11-27T15:19:59.091Z,16.13
2022-11-27T15:22:25.944Z,13.15
2022-11-27T15:25:00.202Z,14.23
2022-11-27T15:29:53.371Z,16.83
2022-11-27T15:32:23.998Z,13.75
2022-11-27T15:34:54.471Z,13.40
2022-11-27T15:37:27.219Z,12.07
2022-11-27T15:40:01.785Z,14.00
2022-11-27T15:42:28.972Z,12.05
2022-11-27T15:44:57.404Z,11.15
2022-11-27T15:47:29.895Z,16.17
2022-11-27T15:49:57.128Z,11.20
2022-11-27T15:52:24.388Z,13.98
2022-11-27T15:54:51.834Z,26.23
2022-11-27T15:57:18.976Z,40.55
2022-11-27T15:59:45.717Z,23.20
2022-11-27T16:02:17.528Z,12.35
2022-11-27T16:04:44.987Z,10.65
2022-11-27T16:07:11.776Z,11.45
2022-11-27T16:09:39.680Z,18.20
2022-11-27T16:12:06.584Z,25.73
2022-11-27T16:14:33.332Z,53.42
2022-11-27T16:17:01.222Z,43.20
2022-11-27T16:19:28.327Z,21.73
2022-11-27T16:21:55.163Z,16.02
2022-11-27T16:24:21.822Z,22.17
2022-11-27T16:26:48.512Z,25.58
2022-11-27T16:29:15.255Z,26.10
2022-11-27T16:31:42.124Z,22.55
2022-11-27T16:34:08.943Z,23.25
2022-11-27T16:36:35.754Z,24.10
2022-11-27T16:39:02.456Z,19.50
2022-11-27T16:41:29.191Z,21.08
2022-11-27T16:43:56.802Z,15.57
2022-11-27T16:46:30.645Z,20.02
2022-11-27T16:48:58.959Z,14.13
2022-11-27T16:51:28.528Z,20.30
2022-11-27T16:53:57.306Z,24.00
2022-11-27T16:56:26.645Z,29.83
2022-11-27T16:58:57.946Z,31.63
2022-11-27T17:01:37.609Z,31.75
2022-11-27T17:04:07.214Z,25.65
2022-11-27T17:06:37.289Z,27.95
2022-11-27T17:09:06.107Z,26.70
2022-11-27T17:11:34.747Z,29.17
2022-11-27T17:14:04.892Z,27.60
2022-11-27T17:16:32.099Z,32.45
2022-11-27T17:18:58.832Z,32.97
2022-11-27T17:21:28.253Z,33.33
2022-11-27T17:24:00.304Z,32.33
2022-11-27T17:26:29.412Z,35.42
2022-11-27T17:28:56.617Z,31.83
2022-11-27T17:31:25.600Z,29.75
2022-11-27T17:33:56.573Z,29.33
2022-11-27T17:36:24.539Z,29.33
2022-11-27T17:38:53.501Z,27.35
2022-11-27T17:41:21.009Z,28.98
2022-11-27T17:43:48.483Z,37.20
2022-11-27T17:46:28.944Z,35.45
2022-11-27T17:48:58.867Z,31.85
2022-11-27T17:51:26.660Z,34.92
2022-11-27T17:53:53.355Z,38.90
2022-11-27T17:56:21.074Z,34.88
2022-11-27T17:58:48.103Z,30.42
2022-11-27T18:01:24.116Z,32.45
2022-11-27T18:03:51.453Z,28.58
2022-11-27T18:06:19.487Z,31.40
2022-11-27T18:08:47.448Z,27.48
2022-11-27T18:11:17.344Z,30.50
2022-11-27T18:13:44.174Z,32.80
2022-11-27T18:16:17.036Z,30.17
2022-11-27T18:18:44.707Z,28.23
2022-11-27T18:21:18.481Z,26.92
2022-11-27T18:24:20.591Z,27.88
2022-11-27T18:27:00.346Z,25.20
2022-11-27T18:29:21.477Z,33.08
2022-11-27T18:31:49.289Z,34.72
2022-11-27T18:34:15.978Z,33.60
2022-11-27T18:36:42.789Z,34.25
2022-11-27T18:39:09.531Z,35.30
2022-11-27T18:41:37.182Z,27.65
2022-11-27T18:44:04.431Z,27.10
2022-11-27T18:46:31.361Z,28.27
2022-11-27T18:48:58.665Z,30.13
2022-11-27T18:51:26.420Z,31.80
2022-11-27T18:53:54.531Z,29.73
2022-11-27T18:56:24.373Z,28.67
2022-11-27T18:58:51.151Z,34.97
2022-11-27T19:01:21.327Z,31.73
2022-11-27T19:03:49.371Z,27.70
2022-11-27T19:06:18.355Z,28.92
2022-11-27T19:08:45.503Z,33.15
2022-11-27T19:11:14.978Z,30.90
2022-11-27T19:13:42.656Z,31.10
2022-11-27T19:16:12.922Z,29.70
2022-11-27T19:18:39.724Z,28.60
2022-11-27T19:21:21.878Z,34.05
2022-11-27T19:23:50.015Z,27.48
2022-11-27T19:26:19.931Z,30.65
2022-11-27T19:28:54.957Z,29.70
2022-11-27T19:31:22.735Z,33.05
2022-11-27T19:33:54.264Z,31.98
2022-11-27T19:36:22.516Z,28.33
2022-11-27T19:38:54.868Z,28.50
2022-11-27T19:41:22.960Z,24.95
2022-11-27T19:43:50.078Z,31.10
2022-11-27T19:46:21.070Z,35.63
2022-11-27T19:48:48.711Z,29.10
2022-11-27T19:51:16.099Z,30.20
2022-11-27T19:53:43.307Z,32.13
2022-11-27T19:56:10.264Z,34.70
2022-11-27T19:58:37.381Z,30.95
2022-11-27T20:01:12.781Z,29.38
2022-11-27T20:03:39.609Z,24.63
2022-11-27T20:06:13.048Z,33.08
2022-11-27T20:08:41.251Z,37.80
2022-11-27T20:11:11.737Z,32.75
2022-11-27T20:13:38.730Z,39.75
2022-11-27T20:16:10.267Z,36.55
2022-11-27T20:18:37.164Z,32.35
2022-11-27T20:21:13.025Z,38.55
2022-11-27T20:23:40.243Z,30.98
2022-11-27T20:26:09.108Z,42.97
2022-11-27T20:28:36.363Z,39.25
2022-11-27T20:31:03.918Z,43.72
2022-11-27T20:33:32.480Z,44.50
2022-11-27T20:35:59.468Z,33.90
2022-11-27T20:38:29.365Z,37.67
2022-11-27T20:40:56.065Z,33.63
2022-11-27T20:43:22.983Z,36.28
2022-11-27T20:45:52.379Z,37.30
2022-11-27T20:48:19.092Z,31.63
2022-11-27T20:50:51.038Z,33.58
2022-11-27T20:53:18.404Z,33.22
2022-11-27T20:55:45.153Z,39.83
2022-11-27T20:58:11.760Z,30.05
2022-11-27T21:00:40.309Z,35.28
2022-11-27T21:03:07.499Z,31.48
2022-11-27T21:05:34.443Z,34.40
2022-11-27T21:08:01.167Z,32.85
2022-11-27T21:10:28.337Z,33.20
2022-11-27T21:12:55.124Z,29.05
2022-11-27T21:15:22.001Z,30.20
2022-11-27T21:17:48.656Z,27.02
2022-11-27T21:20:15.418Z,34.03
2022-11-27T21:22:43.940Z,32.45
2022-11-27T21:25:10.800Z,37.22
2022-11-27T21:27:37.638Z,32.22
2022-11-27T21:30:06.325Z,33.38
2022-11-27T21:32:32.971Z,32.97
2022-11-27T21:34:59.655Z,28.52
2022-11-27T21:37:26.273Z,36.28
2022-11-27T21:39:53.181Z,31.70
2022-11-27T21:42:20.390Z,31.20
2022-11-27T21:44:47.130Z,34.25
2022-11-27T21:47:13.852Z,37.70
2022-11-27T21:49:40.884Z,40.88
2022-11-27T21:52:07.719Z,31.85
2022-11-27T21:54:35.891Z,34.10
2022-11-27T21:57:02.684Z,34.70
2022-11-27T21:59:29.335Z,36.17
2022-11-27T22:01:57.357Z,48.25
2022-11-27T22:04:24.776Z,43.03
2022-11-27T22:06:51.743Z,36.75
2022-11-27T22:09:19.040Z,39.67
2022-11-27T22:11:46.891Z,38.78
2022-11-27T22:14:15.494Z,41.00
2022-11-27T22:16:45.655Z,33.22
2022-11-27T22:19:14.277Z,32.85
2022-11-27T22:21:41.240Z,35.72
2022-11-27T22:24:12.231Z,34.65
2022-11-27T22:26:43.452Z,33.78
2022-11-27T22:29:10.103Z,32.63
2022-11-27T22:31:37.023Z,32.75
2022-11-27T22:34:03.943Z,33.65
2022-11-27T22:36:32.992Z,33.33
2022-11-27T22:39:06.102Z,29.10
2022-11-27T22:41:36.328Z,38.78
2022-11-27T22:44:08.137Z,32.33
2022-11-27T22:46:36.107Z,32.63
2022-11-27T22:49:05.613Z,30.63
2022-11-27T22:51:34.328Z,34.75
2022-11-27T22:54:02.176Z,34.55
2022-11-27T22:56:29.424Z,37.45
2022-11-27T22:59:17.562Z,34.83
2022-11-27T23:01:43.240Z,33.17
2022-11-27T23:04:09.900Z,29.63
2022-11-27T23:06:36.999Z,30.65
2022-11-27T23:09:04.061Z,29.23
2022-11-27T23:11:31.191Z,29.05
2022-11-27T23:13:59.558Z,27.73
2022-11-27T23:16:26.602Z,28.85
2022-11-27T23:18:53.514Z,28.73
2022-11-27T23:21:22.665Z,29.73
2022-11-27T23:23:49.757Z,31.08
2022-11-27T23:26:20.434Z,27.88
2022-11-27T23:28:49.136Z,27.27
2022-11-27T23:31:34.351Z,29.95
2022-11-27T23:34:02.936Z,32.08
2022-11-27T23:36:31.144Z,26.48
2022-11-27T23:39:00.886Z,30.38
2022-11-27T23:41:27.895Z,33.05
2022-11-27T23:43:55.029Z,35.28
2022-11-27T23:46:25.157Z,30.55
2022-11-27T23:48:54.426Z,30.50
2022-11-27T23:51:24.430Z,33.38
2022-11-27T23:53:51.307Z,32.70
2022-11-27T23:56:24.533Z,34.35
2022-11-27T23:58:51.290Z,42.93
